KALS

San Luis Valley Regional / Bergman Field Airport

Alamosa, Colorado, USA
KALS 231746Z 2318/2418 VRB05KT P6SM SCT050 SCT100 FM232000 30008KT P6SM SCT100 FM240200 24007KT P6SM BKN120
Issued Valid From Valid To
Apr-23 @ 17:46 UTC
(5 hours ago)
Apr-23 @ 18:00 UTC
(5 hours ago)
Apr-24 @ 18:00 UTC
(in 19 hours)
Expired Click to View Apr-23 @ 18:00 to Apr-23 @ 20:00
KALS 231746Z 2318/2418 VRB05KT P6SM SCT050 SCT100
Wind Visibility Clouds
Variable at 5 knots Greater than 6 miles
  • Scattered at 5,000' AGL
  • Scattered at 10,000' AGL
From Apr-23 @ 20:00 to Apr-24 @ 02:00
FM232000 30008KT P6SM SCT100
Wind Visibility Clouds
300° at 8 knots Greater than 6 miles
  • Scattered at 10,000' AGL
From Apr-24 @ 02:00 to Apr-24 @ 18:00
FM240200 24007KT P6SM BKN120
Wind Visibility Clouds
240° at 7 knots Greater than 6 miles
  • Broken at 12,000' AGL
KALS 231746Z 2318/2418 VRB05KT P6SM SCT050 SCT100 FM232000 30008KT P6SM SCT100 FM240200 24007KT P6SM BKN120
Issued Apr-23 @ 17:46 UTC
(5 hours ago)
Valid From Apr-23 @ 18:00 UTC
(5 hours ago)
Valid To Apr-24 @ 18:00 UTC
(in 19 hours)
Apr-23 @ 18:00 - Apr-23 @ 20:00
Wind Visibility
Variable at 5 knots Greater than 6 miles
Clouds
  • Scattered at 5,000' AGL
  • Scattered at 10,000' AGL
From Apr-23 @ 20:00 - Apr-24 @ 02:00
Wind Visibility
300° at 8 knots Greater than 6 miles
Clouds
  • Scattered at 10,000' AGL
From Apr-24 @ 02:00 - Apr-24 @ 18:00
Wind Visibility
240° at 7 knots Greater than 6 miles
Clouds
  • Broken at 12,000' AGL